createdAt,value
2023-04-27T00:02:27.771Z,72.08
2023-04-27T00:05:30.742Z,72.68
2023-04-27T00:08:34.877Z,72.78
2023-04-27T00:11:37.581Z,73.42
2023-04-27T00:14:40.421Z,73.30
2023-04-27T00:17:43.625Z,73.26
2023-04-27T00:20:46.960Z,73.74
2023-04-27T00:23:51.141Z,73.44
2023-04-27T00:26:53.853Z,73.87
2023-04-27T00:29:56.932Z,73.42
2023-04-27T00:32:59.746Z,73.29
2023-04-27T00:36:02.897Z,73.49
2023-04-27T00:39:06.916Z,73.40
2023-04-27T00:42:14.003Z,75.13
2023-04-27T00:45:16.716Z,74.41
2023-04-27T00:48:19.706Z,74.51
2023-04-27T00:51:22.387Z,73.87
2023-04-27T00:54:26.954Z,73.21
2023-04-27T00:57:29.647Z,73.99
2023-04-27T01:00:32.461Z,75.14
2023-04-27T01:03:35.725Z,76.06
2023-04-27T01:06:39.318Z,75.76
2023-04-27T01:09:43.481Z,76.03
2023-04-27T01:12:46.276Z,76.57
2023-04-27T01:15:49.595Z,76.21
2023-04-27T01:18:52.575Z,77.34
2023-04-27T01:21:55.363Z,76.46
2023-04-27T01:24:59.429Z,76.55
2023-04-27T01:28:02.283Z,77.06
2023-04-27T01:31:05.044Z,76.84
2023-04-27T01:34:07.897Z,76.92
2023-04-27T01:37:10.590Z,77.14
2023-04-27T01:40:15.446Z,76.85
2023-04-27T01:43:18.449Z,76.45
2023-04-27T01:46:21.723Z,76.33
2023-04-27T01:49:24.616Z,76.32
2023-04-27T01:52:27.555Z,76.64
2023-04-27T01:55:31.629Z,76.67
2023-04-27T01:58:34.342Z,76.70
2023-04-27T02:01:37.126Z,76.79
2023-04-27T02:04:40.018Z,76.56
2023-04-27T02:07:42.876Z,76.65
2023-04-27T02:10:47.322Z,76.79
2023-04-27T02:13:50.078Z,76.72
2023-04-27T02:16:52.712Z,77.44
2023-04-27T02:19:55.425Z,77.24
2023-04-27T02:22:58.250Z,77.90
2023-04-27T02:26:02.330Z,77.80
2023-04-27T02:29:05.071Z,78.01
2023-04-27T02:32:08.454Z,78.09
2023-04-27T02:35:11.231Z,78.61
2023-04-27T02:38:14.131Z,78.78
2023-04-27T02:41:18.261Z,79.02
2023-04-27T02:44:21.067Z,79.12
2023-04-27T02:47:23.912Z,79.23
2023-04-27T02:50:26.899Z,79.30
2023-04-27T02:53:29.654Z,79.80
2023-04-27T02:56:33.820Z,80.09
2023-04-27T02:59:36.594Z,80.34
2023-04-27T03:02:39.530Z,80.71
2023-04-27T03:05:42.571Z,80.74
2023-04-27T03:08:45.488Z,80.79
2023-04-27T03:11:49.608Z,80.15
2023-04-27T03:14:52.282Z,80.36
2023-04-27T03:17:55.074Z,80.34
2023-04-27T03:21:06.600Z,80.44
2023-04-27T03:24:09.378Z,80.55
2023-04-27T03:27:13.917Z,78.96
2023-04-27T03:30:16.750Z,78.49
2023-04-27T03:33:19.577Z,78.04
2023-04-27T03:36:22.271Z,78.26
2023-04-27T03:39:25.062Z,78.62
2023-04-27T03:42:29.541Z,78.62
2023-04-27T03:45:32.397Z,79.73
2023-04-27T03:48:35.066Z,80.03
2023-04-27T03:51:39.834Z,80.15
2023-04-27T03:54:42.685Z,80.23
2023-04-27T03:57:46.776Z,80.70
2023-04-27T04:00:49.576Z,79.94
2023-04-27T04:03:52.326Z,80.23
2023-04-27T04:06:55.336Z,80.91
2023-04-27T04:09:58.086Z,81.43
2023-04-27T04:13:02.190Z,81.38
2023-04-27T04:16:06.297Z,81.37
2023-04-27T04:19:09.672Z,81.64
2023-04-27T04:22:12.424Z,81.24
2023-04-27T04:25:15.343Z,81.05
2023-04-27T04:28:19.407Z,80.40
2023-04-27T04:31:23.093Z,80.37
2023-04-27T04:34:26.223Z,79.45
2023-04-27T04:37:29.252Z,80.15
2023-04-27T04:40:31.969Z,80.67
2023-04-27T04:43:36.966Z,81.23
2023-04-27T04:46:40.108Z,80.58
2023-04-27T04:49:43.004Z,81.09
2023-04-27T04:52:46.130Z,81.31
2023-04-27T04:55:49.471Z,81.50
2023-04-27T04:58:53.772Z,81.55
2023-04-27T05:01:56.708Z,81.78
2023-04-27T05:04:59.858Z,81.84
2023-04-27T05:08:02.913Z,82.06
2023-04-27T05:11:06.170Z,81.80
2023-04-27T05:14:10.634Z,81.22
2023-04-27T05:17:13.514Z,80.38
2023-04-27T05:20:16.468Z,80.15
2023-04-27T05:23:19.124Z,79.23
2023-04-27T05:26:21.842Z,78.09
2023-04-27T05:29:27.188Z,77.30
2023-04-27T05:32:30.457Z,77.67
2023-04-27T05:35:33.648Z,76.98
2023-04-27T05:38:40.057Z,76.69
2023-04-27T05:41:42.986Z,76.71
2023-04-27T05:44:47.151Z,75.81
2023-04-27T05:47:49.934Z,76.43
2023-04-27T05:51:00.419Z,75.49
2023-04-27T05:54:03.308Z,75.80
2023-04-27T05:57:06.193Z,74.13
2023-04-27T06:00:12.690Z,74.22
2023-04-27T06:03:15.608Z,74.74
2023-04-27T06:06:18.696Z,73.76
2023-04-27T06:09:21.630Z,72.68
2023-04-27T06:12:24.384Z,74.40
2023-04-27T06:15:29.359Z,74.70
2023-04-27T06:18:32.899Z,74.68
2023-04-27T06:21:36.451Z,73.84
2023-04-27T06:24:39.282Z,72.27
2023-04-27T06:27:42.228Z,72.07
2023-04-27T06:30:46.539Z,72.70
2023-04-27T06:33:49.353Z,72.25
2023-04-27T06:36:52.239Z,72.14
2023-04-27T06:39:55.584Z,70.69
2023-04-27T06:42:58.380Z,71.59
2023-04-27T06:46:02.972Z,72.04
2023-04-27T06:49:05.886Z,70.97
2023-04-27T06:52:08.725Z,69.44
2023-04-27T06:55:11.646Z,69.08
2023-04-27T06:58:14.507Z,67.80
2023-04-27T07:01:18.798Z,68.12
2023-04-27T07:04:21.916Z,68.45
2023-04-27T07:07:25.244Z,67.05
2023-04-27T07:10:28.961Z,65.87
2023-04-27T07:13:31.896Z,64.20
2023-04-27T07:16:36.529Z,64.93
2023-04-27T07:19:39.686Z,65.03
2023-04-27T07:22:42.474Z,63.42
2023-04-27T07:25:46.333Z,61.89
2023-04-27T07:28:50.236Z,63.01
2023-04-27T07:31:54.508Z,60.67
2023-04-27T07:34:58.168Z,59.19
2023-04-27T07:38:01.868Z,57.42
2023-04-27T07:41:05.735Z,54.73
2023-04-27T07:44:08.531Z,54.49
2023-04-27T07:47:13.598Z,55.11
2023-04-27T07:50:17.792Z,55.17
2023-04-27T07:53:20.905Z,52.33
2023-04-27T07:56:23.872Z,50.81
2023-04-27T07:59:29.816Z,49.96
2023-04-27T08:02:34.855Z,48.90
2023-04-27T08:05:38.346Z,48.55
2023-04-27T08:08:41.519Z,47.74
2023-04-27T08:11:44.373Z,47.51
2023-04-27T08:14:47.973Z,46.82
2023-04-27T08:17:52.267Z,47.31
2023-04-27T08:20:55.210Z,47.34
2023-04-27T08:23:58.024Z,48.72
2023-04-27T08:27:01.051Z,45.42
2023-04-27T08:30:04.011Z,46.18
2023-04-27T08:33:08.359Z,45.80
2023-04-27T08:36:11.123Z,46.55
2023-04-27T08:39:14.093Z,48.81
2023-04-27T08:42:17.152Z,48.17
2023-04-27T08:45:20.576Z,48.03
2023-04-27T08:48:25.003Z,45.41
2023-04-27T08:51:28.710Z,42.74
2023-04-27T08:54:31.784Z,41.34
2023-04-27T08:57:34.529Z,40.40
2023-04-27T09:00:41.560Z,39.33
2023-04-27T09:03:47.314Z,40.86
2023-04-27T09:06:50.668Z,39.49
2023-04-27T09:10:04.119Z,38.81
2023-04-27T09:13:07.097Z,41.93
2023-04-27T09:16:10.227Z,42.60
2023-04-27T09:19:25.059Z,42.38
2023-04-27T09:22:27.946Z,43.96
2023-04-27T09:25:33.042Z,43.21
2023-04-27T09:28:39.163Z,41.50
2023-04-27T09:31:41.934Z,43.45
2023-04-27T09:34:46.450Z,40.79
2023-04-27T09:37:51.978Z,42.45
2023-04-27T09:40:56.702Z,43.11
2023-04-27T09:44:00.238Z,41.10
2023-04-27T09:47:03.058Z,41.60
2023-04-27T09:50:09.097Z,39.08
2023-04-27T09:53:13.893Z,39.78
2023-04-27T09:56:29.114Z,42.41
2023-04-27T10:00:01.736Z,40.62
2023-04-27T10:03:16.628Z,40.73
2023-04-27T10:06:53.168Z,40.53
2023-04-27T10:09:56.073Z,41.63
2023-04-27T10:13:02.953Z,42.89
2023-04-27T10:16:17.226Z,40.36
2023-04-27T10:19:20.620Z,40.52
2023-04-27T10:22:25.556Z,40.62
2023-04-27T10:25:31.182Z,44.35
2023-04-27T10:28:40.204Z,42.39
2023-04-27T10:31:45.017Z,43.46
2023-04-27T10:34:49.099Z,41.35
2023-04-27T10:37:53.351Z,40.52
2023-04-27T10:41:01.541Z,41.98
2023-04-27T10:44:18.736Z,41.19
2023-04-27T10:47:22.128Z,38.83
2023-04-27T10:50:26.369Z,39.50
2023-04-27T10:53:35.507Z,40.64
2023-04-27T10:56:38.431Z,39.70
2023-04-27T10:59:50.832Z,37.98
2023-04-27T11:02:54.820Z,37.36
2023-04-27T11:06:04.153Z,35.86
2023-04-27T11:09:10.673Z,38.93
2023-04-27T11:12:14.044Z,39.74
2023-04-27T11:15:16.820Z,40.08
2023-04-27T11:18:21.882Z,40.36
2023-04-27T11:21:25.617Z,42.13
2023-04-27T11:24:32.853Z,40.17
2023-04-27T11:27:39.547Z,37.71
2023-04-27T11:30:42.420Z,40.47
2023-04-27T11:33:49.886Z,40.35
2023-04-27T11:37:17.438Z,40.76
2023-04-27T11:40:24.560Z,40.16
2023-04-27T11:43:28.125Z,41.71
2023-04-27T11:46:31.330Z,41.75
2023-04-27T11:49:34.496Z,40.58
2023-04-27T11:52:39.079Z,42.08
2023-04-27T11:55:45.033Z,41.50
2023-04-27T11:58:47.956Z,39.71
2023-04-27T12:01:52.721Z,38.89
2023-04-27T12:04:55.638Z,37.13
2023-04-27T12:07:58.485Z,39.69
2023-04-27T12:11:02.709Z,37.63
2023-04-27T12:14:05.572Z,37.37
2023-04-27T12:17:08.512Z,38.10
2023-04-27T12:20:12.855Z,36.98
2023-04-27T12:23:15.773Z,37.97
2023-04-27T12:26:20.487Z,37.31
2023-04-27T12:29:24.489Z,38.61
2023-04-27T12:32:28.137Z,36.32
2023-04-27T12:35:32.129Z,37.65
2023-04-27T12:38:35.095Z,39.12
2023-04-27T12:41:39.309Z,36.71
2023-04-27T12:44:42.395Z,37.27
2023-04-27T12:48:01.085Z,36.30
2023-04-27T12:51:07.429Z,35.68
2023-04-27T12:54:12.966Z,35.75
2023-04-27T12:57:17.373Z,34.63
2023-04-27T13:00:20.690Z,37.63
2023-04-27T13:03:23.584Z,38.38
2023-04-27T13:06:26.966Z,37.50
2023-04-27T13:09:30.142Z,36.19
2023-04-27T13:12:34.507Z,35.85
2023-04-27T13:15:37.600Z,36.31
2023-04-27T13:18:41.382Z,35.98
2023-04-27T13:21:44.117Z,36.75
2023-04-27T13:24:46.989Z,38.91
2023-04-27T13:27:51.665Z,41.75
2023-04-27T13:30:54.692Z,41.02
2023-04-27T13:33:57.519Z,38.16
2023-04-27T13:37:00.301Z,38.12
2023-04-27T13:40:03.049Z,39.52
2023-04-27T13:43:07.246Z,38.27
2023-04-27T13:46:10.140Z,39.06
2023-04-27T13:49:12.982Z,37.30
2023-04-27T13:52:15.731Z,37.78
2023-04-27T13:55:18.534Z,38.58
2023-04-27T13:58:25.642Z,38.14
2023-04-27T14:01:29.590Z,38.39
2023-04-27T14:04:32.618Z,37.44
2023-04-27T14:07:36.519Z,37.24
2023-04-27T14:10:39.556Z,40.20
2023-04-27T14:13:43.741Z,40.16
2023-04-27T14:16:46.986Z,38.91
2023-04-27T14:19:50.003Z,37.57
2023-04-27T14:22:52.820Z,39.98
2023-04-27T14:25:55.756Z,37.26
2023-04-27T14:29:00.102Z,39.42
2023-04-27T14:32:02.888Z,39.55
2023-04-27T14:35:07.045Z,38.96
2023-04-27T14:38:09.994Z,38.63
2023-04-27T14:41:13.071Z,40.08
2023-04-27T14:44:17.250Z,40.69
2023-04-27T14:47:20.133Z,42.41
2023-04-27T14:50:22.831Z,42.80
2023-04-27T14:53:25.790Z,40.33
2023-04-27T14:56:28.531Z,39.98
2023-04-27T14:59:34.177Z,41.71
2023-04-27T15:02:37.309Z,41.87
2023-04-27T15:05:40.365Z,41.75
2023-04-27T15:08:43.281Z,42.37
2023-04-27T15:11:46.798Z,41.23
2023-04-27T15:14:52.776Z,43.10
2023-04-27T15:17:55.671Z,40.87
2023-04-27T15:21:00.157Z,39.41
2023-04-27T15:24:02.970Z,41.56
2023-04-27T15:27:07.207Z,42.48
2023-04-27T15:30:16.137Z,41.27
2023-04-27T15:33:19.559Z,41.50
2023-04-27T15:36:23.435Z,41.29
2023-04-27T15:39:27.345Z,41.14
2023-04-27T15:42:30.370Z,41.89
2023-04-27T15:45:34.617Z,42.28
2023-04-27T15:48:37.515Z,41.79
2023-04-27T15:51:40.266Z,39.87
2023-04-27T15:54:43.036Z,42.60
2023-04-27T15:57:45.882Z,42.83
2023-04-27T16:00:50.097Z,42.36
2023-04-27T16:03:52.858Z,41.53
2023-04-27T16:06:55.651Z,41.54
2023-04-27T16:09:58.807Z,41.68
2023-04-27T16:13:01.549Z,41.28
2023-04-27T16:16:06.294Z,41.20
2023-04-27T16:19:09.956Z,41.32
2023-04-27T16:22:12.927Z,39.73
2023-04-27T16:25:16.062Z,39.73
2023-04-27T16:28:18.953Z,41.29
2023-04-27T16:31:24.155Z,40.76
2023-04-27T16:34:27.838Z,40.62
2023-04-27T16:37:30.642Z,40.18
2023-04-27T16:40:33.499Z,41.31
2023-04-27T16:43:36.308Z,42.74
2023-04-27T16:46:40.498Z,41.56
2023-04-27T16:49:43.619Z,42.11
2023-04-27T16:52:46.483Z,42.83
2023-04-27T16:55:49.449Z,41.98
2023-04-27T16:58:52.288Z,43.17
2023-04-27T17:01:56.486Z,42.16
2023-04-27T17:04:59.534Z,42.79
2023-04-27T17:08:05.105Z,42.09
2023-04-27T17:11:09.306Z,41.73
2023-04-27T17:14:13.869Z,41.84
2023-04-27T17:17:18.116Z,42.23
2023-04-27T17:20:21.574Z,42.73
2023-04-27T17:23:24.768Z,42.80
2023-04-27T17:26:27.594Z,44.69
2023-04-27T17:29:30.384Z,45.41
2023-04-27T17:32:34.674Z,46.88
2023-04-27T17:35:37.437Z,51.24
2023-04-27T17:38:40.900Z,53.00
2023-04-27T17:41:43.854Z,54.66
2023-04-27T17:44:46.837Z,54.50
2023-04-27T17:47:51.799Z,55.88
2023-04-27T17:50:54.820Z,51.91
2023-04-27T17:53:57.545Z,52.45
2023-04-27T17:57:00.375Z,53.86
2023-04-27T18:00:03.268Z,54.40
2023-04-27T18:03:07.530Z,54.89
2023-04-27T18:06:10.729Z,55.60
2023-04-27T18:09:13.788Z,57.18
2023-04-27T18:12:16.748Z,57.75
2023-04-27T18:15:19.518Z,57.87
2023-04-27T18:18:25.368Z,58.14
2023-04-27T18:21:28.383Z,58.98
2023-04-27T18:24:31.200Z,60.20
2023-04-27T18:27:33.941Z,60.88
2023-04-27T18:30:36.704Z,60.98
2023-04-27T18:33:40.866Z,61.66
2023-04-27T18:36:43.641Z,62.07
2023-04-27T18:39:46.348Z,62.41
2023-04-27T18:42:49.184Z,62.29
2023-04-27T18:45:52.086Z,62.13
2023-04-27T18:48:56.253Z,62.05
2023-04-27T18:51:59.008Z,62.22
2023-04-27T18:55:02.032Z,61.85
2023-04-27T18:58:04.807Z,62.26
2023-04-27T19:01:07.775Z,62.58
2023-04-27T19:04:12.538Z,62.82
2023-04-27T19:07:15.515Z,63.05
2023-04-27T19:10:18.484Z,63.02
2023-04-27T19:13:21.784Z,63.27
2023-04-27T19:16:24.880Z,64.41
2023-04-27T19:19:28.989Z,63.70
2023-04-27T19:22:34.229Z,63.64
2023-04-27T19:25:37.304Z,63.28
2023-04-27T19:28:40.351Z,63.16
2023-04-27T19:31:43.160Z,63.52
2023-04-27T19:34:47.320Z,63.13
2023-04-27T19:37:50.021Z,63.56
2023-04-27T19:40:53.112Z,64.18
2023-04-27T19:43:56.070Z,64.16
2023-04-27T19:46:58.882Z,64.44
2023-04-27T19:50:04.862Z,64.97
2023-04-27T19:53:07.602Z,65.96
2023-04-27T19:56:10.326Z,66.03
2023-04-27T19:59:13.112Z,66.48
2023-04-27T20:02:15.912Z,66.80
2023-04-27T20:05:20.405Z,67.12
2023-04-27T20:08:23.395Z,67.41
2023-04-27T20:11:26.216Z,67.29
2023-04-27T20:14:29.951Z,67.40
2023-04-27T20:17:32.887Z,67.85
2023-04-27T20:20:37.467Z,67.87
2023-04-27T20:23:40.221Z,67.51
2023-04-27T20:26:42.913Z,67.05
2023-04-27T20:29:47.154Z,68.05
2023-04-27T20:32:49.884Z,68.13
2023-04-27T20:36:03.525Z,68.03
2023-04-27T20:39:13.082Z,68.57
2023-04-27T20:42:16.095Z,68.87
2023-04-27T20:45:18.893Z,69.01
2023-04-27T20:48:21.603Z,69.73
2023-04-27T20:51:26.234Z,69.31
2023-04-27T20:54:31.071Z,69.61
2023-04-27T20:57:33.763Z,70.62
2023-04-27T21:00:36.767Z,70.69
2023-04-27T21:03:39.742Z,70.63
2023-04-27T21:06:44.574Z,70.76
2023-04-27T21:09:47.323Z,71.53
2023-04-27T21:12:49.999Z,71.40
2023-04-27T21:15:52.739Z,71.05
2023-04-27T21:18:55.444Z,71.54
2023-04-27T21:21:59.857Z,70.96
2023-04-27T21:25:02.754Z,71.12
2023-04-27T21:28:05.876Z,70.64
2023-04-27T21:31:08.682Z,71.66
2023-04-27T21:34:11.891Z,71.82
2023-04-27T21:37:15.908Z,71.97
2023-04-27T21:40:18.931Z,71.57
2023-04-27T21:43:21.774Z,71.98
2023-04-27T21:46:24.666Z,71.95
2023-04-27T21:49:27.484Z,72.49
2023-04-27T21:52:31.577Z,72.15
2023-04-27T21:55:34.231Z,72.34
2023-04-27T21:58:39.083Z,71.99
2023-04-27T22:01:42.048Z,71.81
2023-04-27T22:04:45.329Z,72.25
2023-04-27T22:07:49.504Z,71.95
2023-04-27T22:10:52.449Z,71.78
2023-04-27T22:13:56.159Z,72.18
2023-04-27T22:17:00.917Z,71.83
2023-04-27T22:20:05.485Z,71.76
2023-04-27T22:23:09.854Z,71.66
2023-04-27T22:26:12.641Z,72.00
2023-04-27T22:29:16.104Z,72.98
2023-04-27T22:32:18.889Z,72.88
2023-04-27T22:35:27.167Z,72.70
2023-04-27T22:38:32.157Z,73.52
2023-04-27T22:41:34.923Z,72.77
2023-04-27T22:44:37.688Z,73.60
2023-04-27T22:47:41.474Z,74.00
2023-04-27T22:50:44.356Z,73.85
2023-04-27T22:53:48.491Z,74.27
2023-04-27T22:56:51.527Z,73.74
2023-04-27T22:59:54.344Z,74.65
2023-04-27T23:02:57.290Z,74.72
2023-04-27T23:06:00.876Z,73.65
2023-04-27T23:09:05.474Z,74.11
2023-04-27T23:12:08.946Z,74.58
2023-04-27T23:15:12.883Z,74.22
2023-04-27T23:18:15.937Z,74.96
2023-04-27T23:21:18.814Z,75.26
2023-04-27T23:24:23.075Z,74.90
2023-04-27T23:27:25.974Z,75.18
2023-04-27T23:30:29.722Z,74.81
2023-04-27T23:33:33.512Z,73.51
2023-04-27T23:36:36.173Z,73.52
2023-04-27T23:39:40.342Z,73.33
2023-04-27T23:42:43.023Z,74.09
2023-04-27T23:45:50.439Z,74.88
2023-04-27T23:48:53.636Z,75.67
2023-04-27T23:51:56.644Z,75.45
2023-04-27T23:55:01.000Z,75.73
2023-04-27T23:58:03.894Z,75.83
